createdAt,value
2023-05-22T06:21:57.926Z,17.91
2023-05-22T06:31:47.937Z,18.10
2023-05-22T06:41:46.552Z,18.43
2023-05-22T06:51:46.727Z,18.53
2023-05-22T07:01:46.837Z,18.78
2023-05-22T07:11:46.727Z,19.27
2023-05-22T07:21:46.956Z,19.59
2023-05-22T07:31:46.806Z,19.85
2023-05-22T07:41:46.620Z,20.52
2023-05-22T07:51:46.837Z,20.43
2023-05-22T08:01:46.745Z,20.86
2023-05-22T08:11:46.843Z,21.37
2023-05-22T08:21:46.931Z,21.66
2023-05-22T08:31:47.034Z,21.83
2023-05-22T08:41:46.885Z,22.20
2023-05-22T08:51:47.022Z,22.11
2023-05-22T09:01:47.144Z,22.66
2023-05-22T09:11:46.945Z,22.77
2023-05-22T09:21:47.041Z,23.47
2023-05-22T09:31:46.949Z,23.62
2023-05-22T09:41:46.849Z,23.58
2023-05-22T09:51:47.008Z,23.89
2023-05-22T10:01:46.914Z,24.52
2023-05-22T10:11:47.152Z,24.59
2023-05-22T10:21:47.010Z,24.36
2023-05-22T10:31:46.972Z,24.57
2023-05-22T10:41:47.034Z,24.89
2023-05-22T10:51:47.085Z,24.63
2023-05-22T11:01:47.131Z,24.87
2023-05-22T11:11:47.052Z,24.96
2023-05-22T11:21:46.926Z,24.92
2023-05-22T11:31:47.060Z,25.12
2023-05-22T11:41:47.139Z,25.26
2023-05-22T11:51:46.922Z,25.54
2023-05-22T12:01:47.257Z,25.74
2023-05-22T12:11:46.902Z,25.73
2023-05-22T12:21:46.849Z,26.25
2023-05-22T12:31:46.987Z,26.16
2023-05-22T12:41:47.218Z,26.13
2023-05-22T12:51:47.278Z,26.64
2023-05-22T13:01:47.152Z,26.22
2023-05-22T13:11:47.321Z,26.37
2023-05-22T13:21:47.192Z,26.28
2023-05-22T13:31:47.067Z,26.50
2023-05-22T13:41:47.419Z,26.93
2023-05-22T13:51:47.264Z,26.56
2023-05-22T14:01:47.333Z,26.85
2023-05-22T14:11:47.293Z,25.83
2023-05-22T14:21:47.265Z,25.69
2023-05-22T14:31:48.418Z,25.64
2023-05-22T14:41:47.251Z,25.60
2023-05-22T14:51:47.365Z,25.48
2023-05-22T15:01:47.579Z,25.24
2023-05-22T15:11:47.284Z,25.12
2023-05-22T15:21:47.358Z,25.01
2023-05-22T15:31:47.230Z,24.85
2023-05-22T15:41:58.315Z,24.72
2023-05-22T15:51:47.390Z,24.59
2023-05-22T16:01:47.324Z,24.28
2023-05-22T16:11:47.400Z,23.92
2023-05-22T16:21:47.370Z,23.50
2023-05-22T16:31:47.359Z,22.59
2023-05-22T16:41:47.390Z,21.98
2023-05-22T16:51:47.436Z,22.35
2023-05-22T17:01:47.420Z,22.57
2023-05-22T17:11:47.267Z,22.51
2023-05-22T17:21:47.499Z,22.11
2023-05-22T17:31:47.428Z,21.31
2023-05-22T17:41:47.365Z,20.55
2023-05-22T17:51:47.544Z,20.51
2023-05-22T18:01:47.427Z,20.38
2023-05-22T18:11:47.480Z,20.01
2023-05-22T18:21:47.526Z,20.06
2023-05-22T18:31:47.584Z,19.99
2023-05-22T18:41:47.564Z,20.00
2023-05-22T18:51:47.673Z,19.64
2023-05-22T19:01:47.803Z,19.33
2023-05-22T19:11:48.083Z,18.96
2023-05-22T19:21:48.134Z,18.35
